X  Close Metar Aviation Weather Data        KGAI Gaithersburg
Temperature
56°F Temperature
43°F Dewpoint
62% Humidity



Wind
0 MPH
0 KM/H
0 M/S
0 KTS



Calm
N
Current Conditions

Clear Clear
Pressure 1025 (hPa) - 30.26 (inHg)
Visibility 10 (mile) - 16 (km)
Airport
Airport-code KGAI

Location: Gaithersburg
Distance: 11 (mi)

Metar:
METAR KGAI 150056Z AUTO 00000KT 10SM CLR 13/06 A3023 RMK AO2 SLP248 T01330061

Time: 05-14-2021 8:56 pm EDT